sensor_id;sensor_type;location;lat;lon;timestamp;P1;durP1;ratioP1;P2;durP2;ratioP2
4353;SDS011;11018;51.258;6.806;2024-01-06T00:00:56;26.25;;;15.55;;
4353;SDS011;11018;51.258;6.806;2024-01-06T00:03:21;23.92;;;15.10;;
4353;SDS011;11018;51.258;6.806;2024-01-06T00:05:47;23.00;;;14.53;;
4353;SDS011;11018;51.258;6.806;2024-01-06T00:08:13;22.57;;;14.97;;
4353;SDS011;11018;51.258;6.806;2024-01-06T00:10:38;28.67;;;16.53;;
4353;SDS011;11018;51.258;6.806;2024-01-06T00:13:04;25.20;;;16.93;;
4353;SDS011;11018;51.258;6.806;2024-01-06T00:15:29;24.63;;;15.80;;
4353;SDS011;11018;51.258;6.806;2024-01-06T00:17:55;27.53;;;17.13;;
4353;SDS011;11018;51.258;6.806;2024-01-06T00:20:20;26.25;;;16.95;;
4353;SDS011;11018;51.258;6.806;2024-01-06T00:22:46;27.35;;;17.10;;
4353;SDS011;11018;51.258;6.806;2024-01-06T00:25:11;26.73;;;16.95;;
4353;SDS011;11018;51.258;6.806;2024-01-06T00:27:37;27.45;;;16.20;;
4353;SDS011;11018;51.258;6.806;2024-01-06T00:30:02;26.60;;;17.00;;
4353;SDS011;11018;51.258;6.806;2024-01-06T00:32:28;28.20;;;17.67;;
4353;SDS011;11018;51.258;6.806;2024-01-06T00:34:54;28.30;;;17.05;;
4353;SDS011;11018;51.258;6.806;2024-01-06T00:37:20;32.83;;;18.00;;
4353;SDS011;11018;51.258;6.806;2024-01-06T00:39:45;30.35;;;17.92;;
4353;SDS011;11018;51.258;6.806;2024-01-06T00:42:11;28.65;;;18.80;;
4353;SDS011;11018;51.258;6.806;2024-01-06T00:44:36;32.35;;;18.92;;
4353;SDS011;11018;51.258;6.806;2024-01-06T00:47:02;27.52;;;17.63;;
4353;SDS011;11018;51.258;6.806;2024-01-06T00:49:28;29.77;;;17.70;;
4353;SDS011;11018;51.258;6.806;2024-01-06T00:51:53;26.67;;;17.70;;
4353;SDS011;11018;51.258;6.806;2024-01-06T00:54:19;29.33;;;17.92;;
4353;SDS011;11018;51.258;6.806;2024-01-06T00:56:44;27.40;;;17.70;;
4353;SDS011;11018;51.258;6.806;2024-01-06T00:59:10;29.40;;;18.67;;
4353;SDS011;11018;51.258;6.806;2024-01-06T01:01:35;30.67;;;17.63;;
4353;SDS011;11018;51.258;6.806;2024-01-06T01:04:01;28.83;;;17.33;;
4353;SDS011;11018;51.258;6.806;2024-01-06T01:06:26;30.37;;;18.43;;
4353;SDS011;11018;51.258;6.806;2024-01-06T01:08:52;27.00;;;17.60;;
4353;SDS011;11018;51.258;6.806;2024-01-06T01:11:18;30.90;;;18.88;;
4353;SDS011;11018;51.258;6.806;2024-01-06T01:13:44;33.42;;;19.10;;
4353;SDS011;11018;51.258;6.806;2024-01-06T01:16:09;30.10;;;18.55;;
4353;SDS011;11018;51.258;6.806;2024-01-06T01:18:35;32.15;;;19.30;;
4353;SDS011;11018;51.258;6.806;2024-01-06T01:21:01;29.08;;;17.98;;
4353;SDS011;11018;51.258;6.806;2024-01-06T01:23:26;32.30;;;18.80;;
4353;SDS011;11018;51.258;6.806;2024-01-06T01:25:52;27.80;;;17.30;;
4353;SDS011;11018;51.258;6.806;2024-01-06T01:28:18;32.60;;;20.35;;
4353;SDS011;11018;51.258;6.806;2024-01-06T01:30:44;30.47;;;17.20;;
4353;SDS011;11018;51.258;6.806;2024-01-06T01:33:12;32.43;;;18.80;;
4353;SDS011;11018;51.258;6.806;2024-01-06T01:35:41;28.60;;;18.63;;
4353;SDS011;11018;51.258;6.806;2024-01-06T01:38:07;28.15;;;18.55;;
4353;SDS011;11018;51.258;6.806;2024-01-06T01:40:33;27.58;;;17.52;;
4353;SDS011;11018;51.258;6.806;2024-01-06T01:42:58;30.83;;;18.90;;
4353;SDS011;11018;51.258;6.806;2024-01-06T01:45:24;31.07;;;18.27;;
4353;SDS011;11018;51.258;6.806;2024-01-06T01:47:49;33.47;;;19.77;;
4353;SDS011;11018;51.258;6.806;2024-01-06T01:50:16;31.98;;;19.40;;
4353;SDS011;11018;51.258;6.806;2024-01-06T01:52:41;31.40;;;18.98;;
4353;SDS011;11018;51.258;6.806;2024-01-06T01:55:07;29.10;;;18.23;;
4353;SDS011;11018;51.258;6.806;2024-01-06T01:57:33;32.17;;;19.65;;
4353;SDS011;11018;51.258;6.806;2024-01-06T01:59:59;33.05;;;19.25;;
4353;SDS011;11018;51.258;6.806;2024-01-06T02:02:26;30.95;;;18.42;;
4353;SDS011;11018;51.258;6.806;2024-01-06T02:04:53;31.35;;;18.65;;
4353;SDS011;11018;51.258;6.806;2024-01-06T02:07:19;29.30;;;18.60;;
4353;SDS011;11018;51.258;6.806;2024-01-06T02:09:45;28.33;;;18.20;;
4353;SDS011;11018;51.258;6.806;2024-01-06T02:12:11;29.08;;;17.90;;
4353;SDS011;11018;51.258;6.806;2024-01-06T02:14:36;33.27;;;18.50;;
4353;SDS011;11018;51.258;6.806;2024-01-06T02:17:02;34.47;;;18.67;;
4353;SDS011;11018;51.258;6.806;2024-01-06T02:19:27;33.30;;;20.93;;
4353;SDS011;11018;51.258;6.806;2024-01-06T02:21:53;29.67;;;18.40;;
4353;SDS011;11018;51.258;6.806;2024-01-06T02:24:19;36.97;;;20.30;;
4353;SDS011;11018;51.258;6.806;2024-01-06T02:26:45;31.50;;;19.50;;
4353;SDS011;11018;51.258;6.806;2024-01-06T02:29:11;35.10;;;20.67;;
4353;SDS011;11018;51.258;6.806;2024-01-06T02:31:36;34.23;;;19.57;;
4353;SDS011;11018;51.258;6.806;2024-01-06T02:34:02;32.30;;;20.30;;
4353;SDS011;11018;51.258;6.806;2024-01-06T02:36:27;35.90;;;21.03;;
4353;SDS011;11018;51.258;6.806;2024-01-06T02:38:53;34.57;;;20.27;;
4353;SDS011;11018;51.258;6.806;2024-01-06T02:41:19;33.20;;;20.60;;
4353;SDS011;11018;51.258;6.806;2024-01-06T02:43:44;38.30;;;21.43;;
4353;SDS011;11018;51.258;6.806;2024-01-06T02:46:10;35.67;;;20.70;;
4353;SDS011;11018;51.258;6.806;2024-01-06T02:48:35;35.78;;;21.20;;
4353;SDS011;11018;51.258;6.806;2024-01-06T02:51:01;40.20;;;22.05;;
4353;SDS011;11018;51.258;6.806;2024-01-06T02:53:26;37.30;;;22.02;;
4353;SDS011;11018;51.258;6.806;2024-01-06T02:55:52;39.10;;;22.40;;
4353;SDS011;11018;51.258;6.806;2024-01-06T02:58:17;35.87;;;22.13;;
4353;SDS011;11018;51.258;6.806;2024-01-06T03:00:43;40.40;;;22.57;;
4353;SDS011;11018;51.258;6.806;2024-01-06T03:03:08;39.33;;;22.93;;
4353;SDS011;11018;51.258;6.806;2024-01-06T03:05:34;42.20;;;23.42;;
4353;SDS011;11018;51.258;6.806;2024-01-06T03:08:01;40.53;;;23.33;;
4353;SDS011;11018;51.258;6.806;2024-01-06T03:10:27;37.38;;;22.35;;
4353;SDS011;11018;51.258;6.806;2024-01-06T03:12:53;40.85;;;23.48;;
4353;SDS011;11018;51.258;6.806;2024-01-06T03:15:19;40.42;;;23.75;;
4353;SDS011;11018;51.258;6.806;2024-01-06T03:17:44;41.53;;;23.30;;
4353;SDS011;11018;51.258;6.806;2024-01-06T03:20:10;45.03;;;24.60;;
4353;SDS011;11018;51.258;6.806;2024-01-06T03:22:35;41.10;;;23.40;;
4353;SDS011;11018;51.258;6.806;2024-01-06T03:25:02;43.55;;;24.42;;
4353;SDS011;11018;51.258;6.806;2024-01-06T03:27:27;46.58;;;25.42;;
4353;SDS011;11018;51.258;6.806;2024-01-06T03:29:53;47.07;;;25.87;;
4353;SDS011;11018;51.258;6.806;2024-01-06T03:32:18;49.17;;;23.83;;
4353;SDS011;11018;51.258;6.806;2024-01-06T03:34:44;46.53;;;25.40;;
4353;SDS011;11018;51.258;6.806;2024-01-06T03:37:10;46.60;;;25.53;;
4353;SDS011;11018;51.258;6.806;2024-01-06T03:39:35;47.33;;;26.47;;
4353;SDS011;11018;51.258;6.806;2024-01-06T03:42:01;44.17;;;25.43;;
4353;SDS011;11018;51.258;6.806;2024-01-06T03:44:28;44.17;;;25.17;;
4353;SDS011;11018;51.258;6.806;2024-01-06T03:46:55;45.70;;;25.05;;
4353;SDS011;11018;51.258;6.806;2024-01-06T03:49:22;44.08;;;24.63;;
4353;SDS011;11018;51.258;6.806;2024-01-06T03:51:48;46.10;;;24.40;;
4353;SDS011;11018;51.258;6.806;2024-01-06T03:54:14;40.57;;;21.90;;
4353;SDS011;11018;51.258;6.806;2024-01-06T03:56:39;35.85;;;18.83;;
4353;SDS011;11018;51.258;6.806;2024-01-06T03:59:05;40.15;;;21.65;;
4353;SDS011;11018;51.258;6.806;2024-01-06T04:01:30;35.50;;;18.17;;
4353;SDS011;11018;51.258;6.806;2024-01-06T04:03:59;29.00;;;16.33;;
4353;SDS011;11018;51.258;6.806;2024-01-06T04:06:25;27.60;;;15.10;;
4353;SDS011;11018;51.258;6.806;2024-01-06T04:08:51;24.75;;;13.70;;
4353;SDS011;11018;51.258;6.806;2024-01-06T04:11:19;20.95;;;12.20;;
4353;SDS011;11018;51.258;6.806;2024-01-06T04:13:45;20.52;;;11.07;;
4353;SDS011;11018;51.258;6.806;2024-01-06T04:16:11;20.20;;;11.70;;
4353;SDS011;11018;51.258;6.806;2024-01-06T04:18:36;17.85;;;10.23;;
4353;SDS011;11018;51.258;6.806;2024-01-06T04:21:02;17.48;;;10.50;;
4353;SDS011;11018;51.258;6.806;2024-01-06T04:23:27;21.27;;;11.23;;
4353;SDS011;11018;51.258;6.806;2024-01-06T04:25:53;18.00;;;10.83;;
4353;SDS011;11018;51.258;6.806;2024-01-06T04:28:19;19.00;;;10.90;;
4353;SDS011;11018;51.258;6.806;2024-01-06T04:30:44;17.40;;;10.05;;
4353;SDS011;11018;51.258;6.806;2024-01-06T04:33:10;17.33;;;10.03;;
4353;SDS011;11018;51.258;6.806;2024-01-06T04:35:35;18.27;;;10.70;;
4353;SDS011;11018;51.258;6.806;2024-01-06T04:38:01;21.60;;;11.60;;
4353;SDS011;11018;51.258;6.806;2024-01-06T04:40:26;21.00;;;11.45;;
4353;SDS011;11018;51.258;6.806;2024-01-06T04:42:52;18.50;;;10.85;;
4353;SDS011;11018;51.258;6.806;2024-01-06T04:45:18;20.83;;;10.90;;
4353;SDS011;11018;51.258;6.806;2024-01-06T04:47:44;17.42;;;10.68;;
4353;SDS011;11018;51.258;6.806;2024-01-06T04:50:10;17.93;;;10.70;;
4353;SDS011;11018;51.258;6.806;2024-01-06T04:52:36;19.77;;;10.53;;
4353;SDS011;11018;51.258;6.806;2024-01-06T04:55:01;18.93;;;10.20;;
4353;SDS011;11018;51.258;6.806;2024-01-06T04:57:27;20.55;;;10.98;;
4353;SDS011;11018;51.258;6.806;2024-01-06T04:59:53;20.73;;;10.85;;
4353;SDS011;11018;51.258;6.806;2024-01-06T05:02:18;19.42;;;11.23;;
4353;SDS011;11018;51.258;6.806;2024-01-06T05:04:44;20.70;;;11.30;;
4353;SDS011;11018;51.258;6.806;2024-01-06T05:07:09;19.10;;;11.73;;
4353;SDS011;11018;51.258;6.806;2024-01-06T05:09:35;21.17;;;11.37;;
4353;SDS011;11018;51.258;6.806;2024-01-06T05:12:01;19.93;;;11.40;;
4353;SDS011;11018;51.258;6.806;2024-01-06T05:14:26;20.63;;;11.40;;
4353;SDS011;11018;51.258;6.806;2024-01-06T05:16:52;21.23;;;11.80;;
4353;SDS011;11018;51.258;6.806;2024-01-06T05:19:17;21.37;;;11.50;;
4353;SDS011;11018;51.258;6.806;2024-01-06T05:21:46;19.92;;;11.48;;
4353;SDS011;11018;51.258;6.806;2024-01-06T05:24:12;22.17;;;12.60;;
4353;SDS011;11018;51.258;6.806;2024-01-06T05:26:38;22.47;;;12.50;;
4353;SDS011;11018;51.258;6.806;2024-01-06T05:29:03;19.60;;;11.20;;
4353;SDS011;11018;51.258;6.806;2024-01-06T05:31:29;18.60;;;10.73;;
4353;SDS011;11018;51.258;6.806;2024-01-06T05:33:54;21.30;;;10.80;;
4353;SDS011;11018;51.258;6.806;2024-01-06T05:36:20;19.10;;;10.20;;
4353;SDS011;11018;51.258;6.806;2024-01-06T05:38:45;16.42;;;9.43;;
4353;SDS011;11018;51.258;6.806;2024-01-06T05:41:11;16.20;;;9.27;;
4353;SDS011;11018;51.258;6.806;2024-01-06T05:43:37;16.25;;;9.43;;
4353;SDS011;11018;51.258;6.806;2024-01-06T05:46:03;16.92;;;9.10;;
4353;SDS011;11018;51.258;6.806;2024-01-06T05:48:28;15.63;;;8.70;;
4353;SDS011;11018;51.258;6.806;2024-01-06T05:50:54;16.00;;;9.33;;
4353;SDS011;11018;51.258;6.806;2024-01-06T05:53:19;15.47;;;9.40;;
4353;SDS011;11018;51.258;6.806;2024-01-06T05:55:45;16.30;;;10.03;;
4353;SDS011;11018;51.258;6.806;2024-01-06T05:58:11;18.70;;;12.17;;
4353;SDS011;11018;51.258;6.806;2024-01-06T06:00:36;18.90;;;11.23;;
4353;SDS011;11018;51.258;6.806;2024-01-06T06:03:02;17.80;;;11.70;;
4353;SDS011;11018;51.258;6.806;2024-01-06T06:05:28;18.67;;;11.75;;
4353;SDS011;11018;51.258;6.806;2024-01-06T06:07:53;20.20;;;12.43;;
4353;SDS011;11018;51.258;6.806;2024-01-06T06:10:19;20.35;;;12.48;;
4353;SDS011;11018;51.258;6.806;2024-01-06T06:12:45;19.87;;;12.23;;
4353;SDS011;11018;51.258;6.806;2024-01-06T06:15:11;20.00;;;11.97;;
4353;SDS011;11018;51.258;6.806;2024-01-06T06:17:36;18.70;;;11.07;;
4353;SDS011;11018;51.258;6.806;2024-01-06T06:20:02;14.75;;;9.77;;
4353;SDS011;11018;51.258;6.806;2024-01-06T06:22:28;17.70;;;10.40;;
4353;SDS011;11018;51.258;6.806;2024-01-06T06:24:57;22.83;;;12.25;;
4353;SDS011;11018;51.258;6.806;2024-01-06T06:27:23;23.20;;;13.35;;
4353;SDS011;11018;51.258;6.806;2024-01-06T06:29:49;23.90;;;13.32;;
4353;SDS011;11018;51.258;6.806;2024-01-06T06:32:14;27.00;;;14.00;;
4353;SDS011;11018;51.258;6.806;2024-01-06T06:34:40;26.90;;;14.50;;
4353;SDS011;11018;51.258;6.806;2024-01-06T06:37:05;23.03;;;13.50;;
4353;SDS011;11018;51.258;6.806;2024-01-06T06:39:31;24.27;;;14.07;;
4353;SDS011;11018;51.258;6.806;2024-01-06T06:41:58;26.40;;;14.23;;
4353;SDS011;11018;51.258;6.806;2024-01-06T06:44:23;26.50;;;14.70;;
4353;SDS011;11018;51.258;6.806;2024-01-06T06:46:49;26.13;;;14.37;;
4353;SDS011;11018;51.258;6.806;2024-01-06T06:49:14;26.17;;;13.97;;
4353;SDS011;11018;51.258;6.806;2024-01-06T06:51:40;28.37;;;15.43;;
4353;SDS011;11018;51.258;6.806;2024-01-06T06:54:11;26.30;;;13.70;;
4353;SDS011;11018;51.258;6.806;2024-01-06T06:56:38;26.98;;;14.38;;
4353;SDS011;11018;51.258;6.806;2024-01-06T06:59:03;28.40;;;15.23;;
4353;SDS011;11018;51.258;6.806;2024-01-06T07:01:29;28.23;;;14.77;;
4353;SDS011;11018;51.258;6.806;2024-01-06T07:03:55;27.95;;;15.00;;
4353;SDS011;11018;51.258;6.806;2024-01-06T07:06:21;28.10;;;14.37;;
4353;SDS011;11018;51.258;6.806;2024-01-06T07:08:47;27.30;;;14.93;;
4353;SDS011;11018;51.258;6.806;2024-01-06T07:11:12;28.63;;;15.40;;
4353;SDS011;11018;51.258;6.806;2024-01-06T07:13:40;27.45;;;15.60;;
4353;SDS011;11018;51.258;6.806;2024-01-06T07:16:05;26.17;;;14.70;;
4353;SDS011;11018;51.258;6.806;2024-01-06T07:18:31;28.10;;;14.85;;
4353;SDS011;11018;51.258;6.806;2024-01-06T07:20:58;29.00;;;15.50;;
4353;SDS011;11018;51.258;6.806;2024-01-06T07:23:23;29.35;;;15.27;;
4353;SDS011;11018;51.258;6.806;2024-01-06T07:25:49;32.45;;;16.30;;
4353;SDS011;11018;51.258;6.806;2024-01-06T07:28:14;28.15;;;15.20;;
4353;SDS011;11018;51.258;6.806;2024-01-06T07:30:40;29.55;;;15.70;;
4353;SDS011;11018;51.258;6.806;2024-01-06T07:33:05;30.80;;;15.73;;
4353;SDS011;11018;51.258;6.806;2024-01-06T07:35:31;29.85;;;15.70;;
4353;SDS011;11018;51.258;6.806;2024-01-06T07:37:56;31.67;;;16.30;;
4353;SDS011;11018;51.258;6.806;2024-01-06T07:40:22;23.95;;;13.23;;
4353;SDS011;11018;51.258;6.806;2024-01-06T07:42:48;25.83;;;13.93;;
4353;SDS011;11018;51.258;6.806;2024-01-06T07:45:14;25.53;;;13.20;;
4353;SDS011;11018;51.258;6.806;2024-01-06T07:47:39;24.35;;;13.45;;
4353;SDS011;11018;51.258;6.806;2024-01-06T07:50:05;22.33;;;12.50;;
4353;SDS011;11018;51.258;6.806;2024-01-06T07:52:31;22.55;;;12.57;;
4353;SDS011;11018;51.258;6.806;2024-01-06T07:54:57;22.73;;;12.73;;
4353;SDS011;11018;51.258;6.806;2024-01-06T07:57:23;26.20;;;14.43;;
4353;SDS011;11018;51.258;6.806;2024-01-06T07:59:49;27.33;;;15.30;;
4353;SDS011;11018;51.258;6.806;2024-01-06T08:02:15;26.15;;;14.50;;
4353;SDS011;11018;51.258;6.806;2024-01-06T08:04:43;28.02;;;14.70;;
4353;SDS011;11018;51.258;6.806;2024-01-06T08:07:09;29.40;;;16.17;;
4353;SDS011;11018;51.258;6.806;2024-01-06T08:09:35;32.63;;;17.67;;
4353;SDS011;11018;51.258;6.806;2024-01-06T08:12:01;34.42;;;19.67;;
4353;SDS011;11018;51.258;6.806;2024-01-06T08:14:28;36.10;;;19.30;;
4353;SDS011;11018;51.258;6.806;2024-01-06T08:16:53;31.33;;;18.42;;
4353;SDS011;11018;51.258;6.806;2024-01-06T08:19:19;34.85;;;19.75;;
4353;SDS011;11018;51.258;6.806;2024-01-06T08:21:45;35.92;;;19.90;;
4353;SDS011;11018;51.258;6.806;2024-01-06T08:24:10;35.73;;;19.50;;
4353;SDS011;11018;51.258;6.806;2024-01-06T08:26:36;35.30;;;19.20;;
4353;SDS011;11018;51.258;6.806;2024-01-06T08:29:01;32.97;;;18.47;;
4353;SDS011;11018;51.258;6.806;2024-01-06T08:31:27;30.20;;;16.77;;
4353;SDS011;11018;51.258;6.806;2024-01-06T08:33:53;27.10;;;15.40;;
4353;SDS011;11018;51.258;6.806;2024-01-06T08:36:18;32.17;;;15.50;;
4353;SDS011;11018;51.258;6.806;2024-01-06T08:38:44;31.13;;;14.87;;
4353;SDS011;11018;51.258;6.806;2024-01-06T08:41:09;33.20;;;16.50;;
4353;SDS011;11018;51.258;6.806;2024-01-06T08:43:35;31.67;;;16.70;;
4353;SDS011;11018;51.258;6.806;2024-01-06T08:46:01;33.00;;;18.03;;
4353;SDS011;11018;51.258;6.806;2024-01-06T08:48:27;38.08;;;19.27;;
4353;SDS011;11018;51.258;6.806;2024-01-06T08:50:52;37.30;;;19.33;;
4353;SDS011;11018;51.258;6.806;2024-01-06T08:53:18;32.10;;;18.50;;
4353;SDS011;11018;51.258;6.806;2024-01-06T08:55:43;35.60;;;18.57;;
4353;SDS011;11018;51.258;6.806;2024-01-06T08:58:09;34.23;;;18.67;;
4353;SDS011;11018;51.258;6.806;2024-01-06T09:00:34;35.97;;;19.50;;
4353;SDS011;11018;51.258;6.806;2024-01-06T09:03:00;38.23;;;20.63;;
4353;SDS011;11018;51.258;6.806;2024-01-06T09:05:25;35.60;;;20.00;;
4353;SDS011;11018;51.258;6.806;2024-01-06T09:07:51;38.23;;;21.30;;
4353;SDS011;11018;51.258;6.806;2024-01-06T09:10:17;42.63;;;24.13;;
4353;SDS011;11018;51.258;6.806;2024-01-06T09:12:43;48.50;;;26.73;;
4353;SDS011;11018;51.258;6.806;2024-01-06T09:15:08;52.13;;;27.90;;
4353;SDS011;11018;51.258;6.806;2024-01-06T09:17:34;58.20;;;30.73;;
4353;SDS011;11018;51.258;6.806;2024-01-06T09:20:00;64.67;;;32.60;;
4353;SDS011;11018;51.258;6.806;2024-01-06T09:22:26;65.75;;;32.63;;
4353;SDS011;11018;51.258;6.806;2024-01-06T09:24:52;74.38;;;35.90;;
4353;SDS011;11018;51.258;6.806;2024-01-06T09:27:17;66.70;;;36.00;;
4353;SDS011;11018;51.258;6.806;2024-01-06T09:29:44;63.78;;;33.83;;
4353;SDS011;11018;51.258;6.806;2024-01-06T09:32:09;54.50;;;28.93;;
4353;SDS011;11018;51.258;6.806;2024-01-06T09:34:35;47.53;;;26.13;;
4353;SDS011;11018;51.258;6.806;2024-01-06T09:37:00;47.70;;;24.33;;
4353;SDS011;11018;51.258;6.806;2024-01-06T09:39:26;46.47;;;23.23;;
4353;SDS011;11018;51.258;6.806;2024-01-06T09:41:51;47.63;;;23.97;;
4353;SDS011;11018;51.258;6.806;2024-01-06T09:44:17;51.43;;;26.63;;
4353;SDS011;11018;51.258;6.806;2024-01-06T09:46:43;49.08;;;26.23;;
4353;SDS011;11018;51.258;6.806;2024-01-06T09:49:09;52.53;;;26.03;;
4353;SDS011;11018;51.258;6.806;2024-01-06T09:51:39;56.83;;;27.83;;
4353;SDS011;11018;51.258;6.806;2024-01-06T09:54:06;56.35;;;27.67;;
4353;SDS011;11018;51.258;6.806;2024-01-06T09:56:34;52.53;;;28.15;;
4353;SDS011;11018;51.258;6.806;2024-01-06T09:59:00;51.75;;;27.17;;
4353;SDS011;11018;51.258;6.806;2024-01-06T10:01:26;59.25;;;29.45;;
4353;SDS011;11018;51.258;6.806;2024-01-06T10:03:52;57.85;;;30.20;;
4353;SDS011;11018;51.258;6.806;2024-01-06T10:06:18;65.22;;;32.20;;
4353;SDS011;11018;51.258;6.806;2024-01-06T10:08:48;64.45;;;31.63;;
4353;SDS011;11018;51.258;6.806;2024-01-06T10:11:15;61.17;;;32.25;;
4353;SDS011;11018;51.258;6.806;2024-01-06T10:13:40;68.25;;;33.22;;
4353;SDS011;11018;51.258;6.806;2024-01-06T10:16:06;60.50;;;30.85;;
4353;SDS011;11018;51.258;6.806;2024-01-06T10:18:32;65.53;;;32.65;;
4353;SDS011;11018;51.258;6.806;2024-01-06T10:21:00;69.68;;;34.03;;
4353;SDS011;11018;51.258;6.806;2024-01-06T10:23:28;67.72;;;32.20;;
4353;SDS011;11018;51.258;6.806;2024-01-06T10:25:54;62.88;;;30.60;;
4353;SDS011;11018;51.258;6.806;2024-01-06T10:28:21;53.80;;;27.07;;
4353;SDS011;11018;51.258;6.806;2024-01-06T10:30:47;49.75;;;26.25;;
4353;SDS011;11018;51.258;6.806;2024-01-06T10:33:14;46.67;;;24.67;;
4353;SDS011;11018;51.258;6.806;2024-01-06T10:35:40;48.30;;;25.05;;
4353;SDS011;11018;51.258;6.806;2024-01-06T10:38:07;53.15;;;28.73;;
4353;SDS011;11018;51.258;6.806;2024-01-06T10:40:32;54.00;;;29.05;;
4353;SDS011;11018;51.258;6.806;2024-01-06T10:42:58;56.77;;;29.43;;
4353;SDS011;11018;51.258;6.806;2024-01-06T10:45:25;53.30;;;27.75;;
4353;SDS011;11018;51.258;6.806;2024-01-06T10:47:53;56.70;;;28.73;;
4353;SDS011;11018;51.258;6.806;2024-01-06T10:50:20;57.25;;;29.60;;
4353;SDS011;11018;51.258;6.806;2024-01-06T10:52:47;58.00;;;30.15;;
4353;SDS011;11018;51.258;6.806;2024-01-06T10:55:14;57.85;;;30.50;;
4353;SDS011;11018;51.258;6.806;2024-01-06T10:57:43;57.13;;;30.20;;
4353;SDS011;11018;51.258;6.806;2024-01-06T11:00:10;60.43;;;33.00;;
4353;SDS011;11018;51.258;6.806;2024-01-06T11:02:36;62.42;;;34.40;;
4353;SDS011;11018;51.258;6.806;2024-01-06T11:05:02;70.63;;;36.47;;
4353;SDS011;11018;51.258;6.806;2024-01-06T11:07:32;63.42;;;33.67;;
4353;SDS011;11018;51.258;6.806;2024-01-06T11:10:03;63.63;;;33.60;;
4353;SDS011;11018;51.258;6.806;2024-01-06T11:12:34;51.33;;;27.90;;
4353;SDS011;11018;51.258;6.806;2024-01-06T11:15:00;42.83;;;24.17;;
4353;SDS011;11018;51.258;6.806;2024-01-06T11:20:23;51.38;;;27.38;;
4353;SDS011;11018;51.258;6.806;2024-01-06T11:22:50;59.17;;;29.88;;
4353;SDS011;11018;51.258;6.806;2024-01-06T11:25:16;58.95;;;30.33;;
4353;SDS011;11018;51.258;6.806;2024-01-06T11:27:47;55.97;;;30.60;;
4353;SDS011;11018;51.258;6.806;2024-01-06T11:30:24;49.92;;;29.00;;
4353;SDS011;11018;51.258;6.806;2024-01-06T11:32:51;49.45;;;26.50;;
4353;SDS011;11018;51.258;6.806;2024-01-06T11:35:18;50.08;;;26.60;;
4353;SDS011;11018;51.258;6.806;2024-01-06T11:42:41;43.70;;;23.83;;
4353;SDS011;11018;51.258;6.806;2024-01-06T11:45:07;40.28;;;21.35;;
4353;SDS011;11018;51.258;6.806;2024-01-06T11:47:34;34.33;;;20.10;;
4353;SDS011;11018;51.258;6.806;2024-01-06T11:50:00;50.08;;;25.67;;
4353;SDS011;11018;51.258;6.806;2024-01-06T11:52:32;51.78;;;27.67;;
4353;SDS011;11018;51.258;6.806;2024-01-06T11:54:59;54.33;;;29.98;;
4353;SDS011;11018;51.258;6.806;2024-01-06T11:57:25;65.78;;;33.17;;
4353;SDS011;11018;51.258;6.806;2024-01-06T11:59:55;55.15;;;27.90;;
4353;SDS011;11018;51.258;6.806;2024-01-06T12:02:20;56.20;;;28.33;;
4353;SDS011;11018;51.258;6.806;2024-01-06T12:04:53;55.72;;;28.33;;
4353;SDS011;11018;51.258;6.806;2024-01-06T12:07:20;55.55;;;25.85;;
4353;SDS011;11018;51.258;6.806;2024-01-06T12:09:50;47.22;;;22.65;;
4353;SDS011;11018;51.258;6.806;2024-01-06T12:12:25;42.47;;;22.27;;
4353;SDS011;11018;51.258;6.806;2024-01-06T12:14:51;48.03;;;24.27;;
4353;SDS011;11018;51.258;6.806;2024-01-06T12:17:16;44.10;;;23.80;;
4353;SDS011;11018;51.258;6.806;2024-01-06T12:19:42;46.53;;;24.50;;
4353;SDS011;11018;51.258;6.806;2024-01-06T12:22:09;51.63;;;26.27;;
4353;SDS011;11018;51.258;6.806;2024-01-06T12:24:38;55.30;;;28.70;;
4353;SDS011;11018;51.258;6.806;2024-01-06T12:27:03;59.43;;;31.50;;
4353;SDS011;11018;51.258;6.806;2024-01-06T12:29:33;66.83;;;32.70;;
4353;SDS011;11018;51.258;6.806;2024-01-06T12:32:02;65.00;;;33.03;;
4353;SDS011;11018;51.258;6.806;2024-01-06T12:34:28;68.53;;;34.13;;
4353;SDS011;11018;51.258;6.806;2024-01-06T12:36:53;69.43;;;35.05;;
4353;SDS011;11018;51.258;6.806;2024-01-06T12:39:23;69.38;;;35.45;;
4353;SDS011;11018;51.258;6.806;2024-01-06T12:41:52;82.90;;;40.00;;
4353;SDS011;11018;51.258;6.806;2024-01-06T12:44:19;82.93;;;40.38;;
4353;SDS011;11018;51.258;6.806;2024-01-06T12:46:45;80.22;;;38.40;;
4353;SDS011;11018;51.258;6.806;2024-01-06T12:49:10;78.00;;;37.90;;
4353;SDS011;11018;51.258;6.806;2024-01-06T12:51:36;76.35;;;37.30;;
4353;SDS011;11018;51.258;6.806;2024-01-06T12:54:02;75.90;;;36.80;;
4353;SDS011;11018;51.258;6.806;2024-01-06T12:56:28;75.05;;;37.17;;
4353;SDS011;11018;51.258;6.806;2024-01-06T12:58:53;72.95;;;35.90;;
4353;SDS011;11018;51.258;6.806;2024-01-06T13:01:19;67.15;;;34.70;;
4353;SDS011;11018;51.258;6.806;2024-01-06T13:03:44;64.77;;;32.93;;
4353;SDS011;11018;51.258;6.806;2024-01-06T13:06:10;66.63;;;33.23;;
4353;SDS011;11018;51.258;6.806;2024-01-06T13:08:35;64.13;;;32.40;;
4353;SDS011;11018;51.258;6.806;2024-01-06T13:11:01;66.90;;;32.75;;
4353;SDS011;11018;51.258;6.806;2024-01-06T13:13:28;67.25;;;33.53;;
4353;SDS011;11018;51.258;6.806;2024-01-06T13:15:53;65.78;;;31.88;;
4353;SDS011;11018;51.258;6.806;2024-01-06T13:18:19;67.60;;;32.65;;
4353;SDS011;11018;51.258;6.806;2024-01-06T13:20:45;71.00;;;33.83;;
4353;SDS011;11018;51.258;6.806;2024-01-06T13:23:10;64.57;;;33.07;;
4353;SDS011;11018;51.258;6.806;2024-01-06T13:25:38;68.88;;;34.63;;
4353;SDS011;11018;51.258;6.806;2024-01-06T13:28:05;72.75;;;33.50;;
4353;SDS011;11018;51.258;6.806;2024-01-06T13:30:31;74.00;;;35.63;;
4353;SDS011;11018;51.258;6.806;2024-01-06T13:32:59;74.13;;;35.70;;
4353;SDS011;11018;51.258;6.806;2024-01-06T13:35:25;70.50;;;34.25;;
4353;SDS011;11018;51.258;6.806;2024-01-06T13:37:51;62.47;;;31.88;;
4353;SDS011;11018;51.258;6.806;2024-01-06T13:40:17;59.88;;;29.85;;
4353;SDS011;11018;51.258;6.806;2024-01-06T13:42:46;52.53;;;27.83;;
4353;SDS011;11018;51.258;6.806;2024-01-06T13:45:15;47.88;;;26.05;;
4353;SDS011;11018;51.258;6.806;2024-01-06T13:47:41;46.55;;;25.80;;
4353;SDS011;11018;51.258;6.806;2024-01-06T13:50:13;47.97;;;25.00;;
4353;SDS011;11018;51.258;6.806;2024-01-06T13:52:40;46.73;;;26.83;;
4353;SDS011;11018;51.258;6.806;2024-01-06T13:55:06;48.03;;;26.42;;
4353;SDS011;11018;51.258;6.806;2024-01-06T13:57:33;53.92;;;28.10;;
4353;SDS011;11018;51.258;6.806;2024-01-06T13:59:59;43.55;;;24.15;;
4353;SDS011;11018;51.258;6.806;2024-01-06T14:02:24;46.55;;;25.67;;
4353;SDS011;11018;51.258;6.806;2024-01-06T14:04:51;49.80;;;26.88;;
4353;SDS011;11018;51.258;6.806;2024-01-06T14:07:17;44.25;;;25.05;;
4353;SDS011;11018;51.258;6.806;2024-01-06T14:09:46;41.20;;;24.00;;
4353;SDS011;11018;51.258;6.806;2024-01-06T14:12:12;42.37;;;23.50;;
4353;SDS011;11018;51.258;6.806;2024-01-06T14:17:17;44.47;;;23.85;;
4353;SDS011;11018;51.258;6.806;2024-01-06T14:19:43;43.33;;;25.17;;
4353;SDS011;11018;51.258;6.806;2024-01-06T14:22:08;41.88;;;25.42;;
4353;SDS011;11018;51.258;6.806;2024-01-06T14:24:34;42.00;;;24.60;;
4353;SDS011;11018;51.258;6.806;2024-01-06T14:27:01;46.65;;;26.02;;
4353;SDS011;11018;51.258;6.806;2024-01-06T14:29:28;37.55;;;22.73;;
4353;SDS011;11018;51.258;6.806;2024-01-06T14:31:55;35.22;;;20.55;;
4353;SDS011;11018;51.258;6.806;2024-01-06T14:34:20;39.03;;;22.80;;
4353;SDS011;11018;51.258;6.806;2024-01-06T14:36:46;35.40;;;21.27;;
4353;SDS011;11018;51.258;6.806;2024-01-06T14:39:14;30.25;;;19.98;;